createdAt,value
2023-04-25T00:00:15.851Z,11.92
2023-04-25T00:03:19.769Z,11.86
2023-04-25T00:06:27.440Z,11.86
2023-04-25T00:09:31.321Z,11.84
2023-04-25T00:12:35.561Z,11.83
2023-04-25T00:15:39.128Z,11.81
2023-04-25T00:18:43.751Z,11.80
2023-04-25T00:21:47.334Z,11.78
2023-04-25T00:24:51.059Z,11.77
2023-04-25T00:27:53.744Z,11.75
2023-04-25T00:30:56.778Z,11.75
2023-04-25T00:34:07.631Z,11.79
2023-04-25T00:37:11.830Z,11.82
2023-04-25T00:40:15.224Z,11.81
2023-04-25T00:43:17.986Z,11.81
2023-04-25T00:46:20.909Z,11.83
2023-04-25T00:49:23.724Z,11.83
2023-04-25T00:52:26.540Z,11.84
2023-04-25T00:55:30.168Z,11.82
2023-04-25T00:58:33.402Z,11.81
2023-04-25T01:01:36.720Z,11.78
2023-04-25T01:04:40.165Z,11.70
2023-04-25T01:07:44.137Z,11.77
2023-04-25T01:10:48.001Z,11.76
2023-04-25T01:13:52.354Z,11.77
2023-04-25T01:17:03.437Z,11.76
2023-04-25T01:20:08.496Z,11.75
2023-04-25T01:23:12.424Z,11.73
2023-04-25T01:26:16.602Z,11.71
2023-04-25T01:29:22.192Z,11.71
2023-04-25T01:32:25.344Z,11.70
2023-04-25T01:35:28.292Z,11.70
2023-04-25T01:38:31.376Z,11.71
2023-04-25T01:41:35.580Z,11.68
2023-04-25T01:44:39.354Z,11.66
2023-04-25T01:47:44.855Z,11.69
2023-04-25T01:50:49.189Z,11.69
2023-04-25T01:53:52.316Z,11.68
2023-04-25T01:57:03.100Z,11.69
2023-04-25T02:00:08.195Z,11.68
2023-04-25T02:03:14.881Z,11.67
2023-04-25T02:06:17.987Z,11.68
2023-04-25T02:09:22.328Z,11.66
2023-04-25T02:12:27.427Z,11.65
2023-04-25T02:15:30.824Z,11.60
2023-04-25T02:18:34.238Z,11.62
2023-04-25T02:21:37.728Z,11.61
2023-04-25T02:24:41.077Z,11.52
2023-04-25T02:27:44.252Z,11.60
2023-04-25T02:30:48.550Z,11.57
2023-04-25T02:33:52.909Z,11.53
2023-04-25T02:37:02.388Z,11.50
2023-04-25T02:40:05.949Z,11.48
2023-04-25T02:43:10.342Z,11.49
2023-04-25T02:46:12.939Z,11.44
2023-04-25T02:49:16.395Z,11.46
2023-04-25T02:52:19.427Z,11.43
2023-04-25T02:55:27.806Z,11.43
2023-04-25T02:58:31.093Z,11.36
2023-04-25T03:01:36.167Z,11.39
2023-04-25T03:04:38.918Z,11.37
2023-04-25T03:07:41.758Z,11.33
2023-04-25T03:10:46.817Z,11.34
2023-04-25T03:13:51.577Z,11.28
2023-04-25T03:16:54.363Z,11.30
2023-04-25T03:19:58.611Z,11.25
2023-04-25T03:23:04.055Z,11.25
2023-04-25T03:26:09.086Z,11.24
2023-04-25T03:29:12.661Z,11.21
2023-04-25T03:32:17.176Z,11.17
2023-04-25T03:35:20.281Z,11.19
2023-04-25T03:38:24.717Z,11.14
2023-04-25T03:41:29.523Z,11.07
2023-04-25T03:44:33.589Z,11.06
2023-04-25T03:47:36.266Z,11.06
2023-04-25T03:50:40.779Z,11.07
2023-04-25T03:53:43.584Z,11.03
2023-04-25T03:56:53.353Z,10.99
2023-04-25T03:59:58.165Z,10.96
2023-04-25T04:03:03.946Z,10.93
2023-04-25T04:06:10.155Z,10.92
2023-04-25T04:09:13.521Z,10.88
2023-04-25T04:12:25.568Z,10.85
2023-04-25T04:15:28.476Z,10.86
2023-04-25T04:18:34.864Z,10.84
2023-04-25T04:21:39.634Z,10.80
2023-04-25T04:24:47.548Z,10.80
2023-04-25T04:27:55.773Z,10.81
2023-04-25T04:31:06.142Z,10.76
2023-04-25T04:34:11.884Z,10.71
2023-04-25T04:37:15.929Z,10.65
2023-04-25T04:40:21.633Z,10.62
2023-04-25T04:43:29.724Z,10.61
2023-04-25T04:46:39.022Z,10.57
2023-04-25T04:49:47.011Z,10.58
2023-04-25T04:52:51.993Z,10.56
2023-04-25T04:55:58.150Z,10.53
2023-04-25T04:59:04.297Z,10.55
2023-04-25T05:02:08.496Z,10.45
2023-04-25T05:05:11.766Z,10.38
2023-04-25T05:08:18.832Z,10.36
2023-04-25T05:11:25.045Z,10.25
2023-04-25T05:14:29.832Z,10.18
2023-04-25T05:17:41.151Z,10.18
2023-04-25T05:20:45.499Z,10.13
2023-04-25T05:23:48.657Z,10.07
2023-04-25T05:26:54.233Z,10.04
2023-04-25T05:30:04.179Z,10.03
2023-04-25T05:33:10.174Z,10.01
2023-04-25T05:36:14.538Z,9.89
2023-04-25T05:39:26.063Z,9.96
2023-04-25T05:42:30.223Z,9.90
2023-04-25T05:45:34.458Z,9.92
2023-04-25T05:48:39.056Z,9.88
2023-04-25T05:51:42.438Z,9.88
2023-04-25T05:54:47.796Z,9.87
2023-04-25T05:57:54.389Z,9.92
2023-04-25T06:01:05.927Z,9.86
2023-04-25T06:04:14.431Z,9.99
2023-04-25T06:07:19.154Z,10.02
2023-04-25T06:10:23.827Z,10.07
2023-04-25T06:13:28.549Z,10.11
2023-04-25T06:16:32.322Z,10.16
2023-04-25T06:19:37.167Z,10.25
2023-04-25T06:22:40.983Z,10.29
2023-04-25T06:25:44.892Z,10.34
2023-04-25T06:28:49.980Z,10.42
2023-04-25T06:31:54.125Z,10.55
2023-04-25T06:34:59.276Z,10.69
2023-04-25T06:38:02.417Z,10.80
2023-04-25T06:41:06.418Z,10.90
2023-04-25T06:44:11.532Z,11.04
2023-04-25T06:47:16.452Z,11.20
2023-04-25T06:50:25.027Z,11.29
2023-04-25T06:53:35.958Z,11.34
2023-04-25T06:56:41.341Z,11.31
2023-04-25T06:59:44.788Z,11.36
2023-04-25T07:02:48.054Z,11.36
2023-04-25T07:05:51.869Z,11.43
2023-04-25T07:08:57.331Z,11.56
2023-04-25T07:12:04.728Z,11.55
2023-04-25T07:15:11.155Z,11.69
2023-04-25T07:18:18.060Z,11.84
2023-04-25T07:21:22.386Z,12.11
2023-04-25T07:24:27.245Z,12.49
2023-04-25T07:27:32.063Z,12.61
2023-04-25T07:30:37.073Z,12.92
2023-04-25T07:33:40.039Z,13.16
2023-04-25T07:36:51.345Z,13.52
2023-04-25T07:39:58.083Z,13.63
2023-04-25T07:43:01.712Z,13.73
2023-04-25T07:46:06.123Z,13.62
2023-04-25T07:49:09.963Z,13.73
2023-04-25T07:52:14.477Z,13.92
2023-04-25T07:55:20.260Z,14.55
2023-04-25T07:58:24.154Z,14.90
2023-04-25T08:01:29.473Z,15.43
2023-04-25T08:04:40.555Z,15.51
2023-04-25T08:07:45.296Z,16.10
2023-04-25T08:10:49.490Z,16.09
2023-04-25T08:13:57.196Z,16.14
2023-04-25T08:17:00.562Z,16.01
2023-04-25T08:20:06.943Z,16.43
2023-04-25T08:23:12.021Z,16.80
2023-04-25T08:26:19.535Z,16.62
2023-04-25T08:29:27.059Z,16.77
2023-04-25T08:32:31.137Z,16.74
2023-04-25T08:35:39.153Z,16.63
2023-04-25T08:38:42.597Z,16.43
2023-04-25T08:41:47.717Z,16.46
2023-04-25T08:44:51.049Z,16.19
2023-04-25T08:48:00.207Z,15.47
2023-04-25T08:51:07.582Z,15.44
2023-04-25T08:57:24.254Z,15.93
2023-04-25T09:00:28.005Z,15.52
2023-04-25T09:03:33.088Z,15.84
2023-04-25T09:06:37.023Z,15.66
2023-04-25T09:09:43.779Z,15.92
2023-04-25T09:13:11.358Z,16.16
2023-04-25T09:16:18.553Z,16.29
2023-04-25T09:22:39.012Z,16.59
2023-04-25T09:25:46.015Z,16.48
2023-04-25T09:29:09.393Z,16.41
2023-04-25T09:32:26.506Z,15.97
2023-04-25T09:35:30.165Z,15.84
2023-04-25T09:38:47.177Z,15.88
2023-04-25T09:41:55.133Z,16.30
2023-04-25T09:45:05.077Z,16.78
2023-04-25T09:48:24.360Z,16.51
2023-04-25T09:51:29.103Z,16.03
2023-04-25T09:54:33.406Z,15.60
2023-04-25T09:57:43.056Z,15.53
2023-04-25T10:00:51.254Z,16.06
2023-04-25T10:04:00.471Z,15.75
2023-04-25T10:07:10.258Z,15.53
2023-04-25T10:10:26.866Z,15.55
2023-04-25T10:13:32.371Z,15.65
2023-04-25T10:16:37.098Z,15.51
2023-04-25T10:19:41.344Z,15.54
2023-04-25T10:22:47.282Z,15.65
2023-04-25T10:25:55.263Z,15.69
2023-04-25T10:29:01.259Z,15.70
2023-04-25T10:32:06.652Z,16.33
2023-04-25T10:35:27.415Z,16.36
2023-04-25T10:38:30.462Z,16.20
2023-04-25T10:41:47.044Z,16.24
2023-04-25T10:45:08.080Z,15.93
2023-04-25T10:48:33.030Z,16.14
2023-04-25T10:51:54.178Z,15.49
2023-04-25T10:55:06.531Z,15.66
2023-04-25T10:58:12.030Z,16.35
2023-04-25T11:01:26.608Z,16.46
2023-04-25T11:04:32.575Z,16.67
2023-04-25T11:08:00.050Z,17.14
2023-04-25T11:11:09.558Z,16.47
2023-04-25T11:14:15.312Z,17.22
2023-04-25T11:17:19.145Z,17.52
2023-04-25T11:20:27.199Z,18.91
2023-04-25T11:23:33.076Z,19.54
2023-04-25T11:26:38.521Z,18.78
2023-04-25T11:29:42.390Z,18.05
2023-04-25T11:32:46.803Z,17.07
2023-04-25T11:35:59.273Z,17.07
2023-04-25T11:39:03.959Z,16.47
2023-04-25T11:42:15.119Z,16.60
2023-04-25T11:45:19.886Z,16.72
2023-04-25T11:48:27.096Z,16.71
2023-04-25T11:51:31.246Z,16.67
2023-04-25T11:54:41.097Z,16.99
2023-04-25T11:57:49.830Z,17.11
2023-04-25T12:00:59.731Z,17.06
2023-04-25T12:04:16.251Z,17.33
2023-04-25T12:07:24.068Z,18.38
2023-04-25T12:10:30.091Z,18.86
2023-04-25T12:13:38.032Z,19.65
2023-04-25T12:17:02.062Z,19.47
2023-04-25T12:20:15.971Z,19.67
2023-04-25T12:23:29.603Z,19.72
2023-04-25T12:26:48.090Z,19.98
2023-04-25T12:30:00.113Z,20.33
2023-04-25T12:33:04.330Z,20.23
2023-04-25T12:36:10.316Z,19.98
2023-04-25T12:39:23.761Z,20.04
2023-04-25T12:42:30.381Z,20.15
2023-04-25T12:45:38.599Z,19.74
2023-04-25T12:48:44.019Z,19.72
2023-04-25T12:51:55.108Z,20.06
2023-04-25T12:55:02.711Z,19.30
2023-04-25T12:58:15.328Z,18.92
2023-04-25T13:01:27.695Z,18.34
2023-04-25T13:04:32.462Z,17.96
2023-04-25T13:07:37.497Z,17.98
2023-04-25T13:10:43.666Z,17.38
2023-04-25T13:13:47.230Z,17.64
2023-04-25T13:16:50.050Z,18.01
2023-04-25T13:19:59.114Z,18.33
2023-04-25T13:23:09.131Z,18.18
2023-04-25T13:26:13.009Z,18.30
2023-04-25T13:29:17.255Z,18.15
2023-04-25T13:32:33.042Z,17.79
2023-04-25T13:35:39.044Z,17.78
2023-04-25T13:38:44.983Z,17.70
2023-04-25T13:41:59.114Z,17.45
2023-04-25T13:45:10.154Z,16.96
2023-04-25T13:48:14.791Z,16.94
2023-04-25T13:51:20.631Z,17.19
2023-04-25T13:54:24.228Z,17.43
2023-04-25T13:57:28.358Z,17.52
2023-04-25T14:00:34.159Z,17.41
2023-04-25T14:03:37.860Z,17.55
2023-04-25T14:06:52.312Z,17.60
2023-04-25T14:09:58.475Z,17.68
2023-04-25T14:13:01.776Z,17.77
2023-04-25T14:16:12.219Z,17.78
2023-04-25T14:19:30.015Z,17.55
2023-04-25T14:22:34.063Z,17.73
2023-04-25T14:25:39.600Z,17.02
2023-04-25T14:28:43.718Z,17.01
2023-04-25T14:31:49.256Z,16.66
2023-04-25T14:34:53.160Z,16.83
2023-04-25T14:38:01.750Z,17.19
2023-04-25T14:41:14.018Z,17.41
2023-04-25T14:44:17.886Z,17.65
2023-04-25T14:47:24.677Z,17.76
2023-04-25T14:50:37.607Z,18.02
2023-04-25T14:53:42.104Z,18.02
2023-04-25T14:56:47.108Z,17.83
2023-04-25T14:59:52.078Z,17.66
2023-04-25T15:03:01.792Z,17.62
2023-04-25T15:06:09.252Z,17.28
2023-04-25T15:09:22.090Z,17.17
2023-04-25T15:12:29.326Z,17.14
2023-04-25T15:15:33.237Z,17.14
2023-04-25T15:18:38.869Z,17.19
2023-04-25T15:21:42.652Z,17.05
2023-04-25T15:24:49.366Z,16.72
2023-04-25T15:28:01.080Z,16.63
2023-04-25T15:31:11.605Z,16.68
2023-04-25T15:34:14.858Z,16.39
2023-04-25T15:37:27.401Z,16.17
2023-04-25T15:40:30.923Z,15.98
2023-04-25T15:43:39.057Z,15.87
2023-04-25T15:46:44.106Z,15.85
2023-04-25T15:49:47.917Z,15.72
2023-04-25T15:52:58.685Z,15.62
2023-04-25T15:56:02.319Z,15.62
2023-04-25T15:59:07.101Z,15.52
2023-04-25T16:02:14.059Z,15.47
2023-04-25T16:05:24.068Z,15.29
2023-04-25T16:08:37.217Z,15.21
2023-04-25T16:11:56.176Z,14.96
2023-04-25T16:15:00.148Z,14.85
2023-04-25T16:18:05.177Z,14.62
2023-04-25T16:21:17.340Z,14.52
2023-04-25T16:24:21.416Z,14.49
2023-04-25T16:27:40.107Z,14.43
2023-04-25T16:30:43.455Z,14.44
2023-04-25T16:33:47.654Z,14.40
2023-04-25T16:36:51.624Z,14.23
2023-04-25T16:39:58.699Z,14.27
2023-04-25T16:43:15.991Z,14.27
2023-04-25T16:46:28.491Z,14.33
2023-04-25T16:49:33.878Z,14.33
2023-04-25T16:52:39.213Z,14.32
2023-04-25T16:55:45.248Z,14.23
2023-04-25T16:58:53.418Z,14.17
2023-04-25T17:01:59.129Z,14.02
2023-04-25T17:05:05.872Z,13.88
2023-04-25T17:08:12.021Z,13.81
2023-04-25T17:11:14.864Z,13.72
2023-04-25T17:14:26.147Z,13.65
2023-04-25T17:17:42.313Z,13.59
2023-04-25T17:20:47.020Z,13.46
2023-04-25T17:23:58.933Z,13.39
2023-04-25T17:27:04.702Z,13.22
2023-04-25T17:30:16.989Z,13.14
2023-04-25T17:33:32.091Z,13.04
2023-04-25T17:36:36.615Z,12.95
2023-04-25T17:39:47.073Z,12.85
2023-04-25T17:42:56.276Z,12.78
2023-04-25T17:46:07.131Z,12.68
2023-04-25T17:49:19.130Z,12.58
2023-04-25T17:52:37.202Z,12.50
2023-04-25T17:55:51.122Z,12.47
2023-04-25T17:59:04.911Z,12.38
2023-04-25T18:02:12.722Z,12.36
2023-04-25T18:05:26.185Z,12.31
2023-04-25T18:08:37.110Z,12.24
2023-04-25T18:11:41.362Z,12.20
2023-04-25T18:14:55.167Z,12.14
2023-04-25T18:18:04.115Z,12.09
2023-04-25T18:21:10.077Z,11.95
2023-04-25T18:24:18.140Z,11.80
2023-04-25T18:27:27.979Z,11.70
2023-04-25T18:30:36.073Z,11.60
2023-04-25T18:33:47.150Z,11.65
2023-04-25T18:36:56.585Z,11.67
2023-04-25T18:40:07.123Z,11.57
2023-04-25T18:43:13.108Z,11.55
2023-04-25T18:46:24.505Z,11.57
2023-04-25T18:49:29.173Z,11.56
2023-04-25T18:52:38.074Z,11.47
2023-04-25T18:55:43.621Z,11.39
2023-04-25T18:58:47.167Z,11.34
2023-04-25T19:01:58.350Z,11.33
2023-04-25T19:05:11.122Z,11.29
2023-04-25T19:08:24.847Z,11.22
2023-04-25T19:11:31.662Z,11.14
2023-04-25T19:14:57.008Z,11.10
2023-04-25T19:18:08.138Z,11.04
2023-04-25T19:21:11.826Z,10.88
2023-04-25T19:24:23.308Z,10.96
2023-04-25T19:27:30.226Z,10.94
2023-04-25T19:30:38.124Z,10.91
2023-04-25T19:33:47.057Z,10.87
2023-04-25T19:36:53.082Z,10.81
2023-04-25T19:39:56.352Z,10.71
2023-04-25T19:42:59.550Z,10.67
2023-04-25T19:46:10.546Z,10.62
2023-04-25T19:49:17.094Z,10.55
2023-04-25T19:52:26.851Z,10.53
2023-04-25T19:55:30.090Z,10.60
2023-04-25T19:58:33.007Z,10.51
2023-04-25T20:01:37.037Z,10.38
2023-04-25T20:04:44.299Z,10.25
2023-04-25T20:07:53.043Z,10.23
2023-04-25T20:11:00.053Z,10.21
2023-04-25T20:14:06.084Z,10.13
2023-04-25T20:17:12.163Z,10.08
2023-04-25T20:20:23.990Z,10.06
2023-04-25T20:23:27.051Z,10.11
2023-04-25T20:26:34.362Z,10.17
2023-04-25T20:29:38.750Z,10.15
2023-04-25T20:32:41.967Z,10.12
2023-04-25T20:35:46.581Z,10.14
2023-04-25T20:38:49.730Z,10.13
2023-04-25T20:41:53.262Z,10.12
2023-04-25T20:44:56.931Z,10.09
2023-04-25T20:48:00.529Z,10.06
2023-04-25T20:51:07.274Z,10.04
2023-04-25T20:54:11.323Z,9.97
2023-04-25T20:57:19.487Z,9.89
2023-04-25T21:00:33.117Z,9.91
2023-04-25T21:03:38.802Z,9.87
2023-04-25T21:06:44.493Z,9.80
2023-04-25T21:09:48.152Z,9.82
2023-04-25T21:12:52.586Z,9.81
2023-04-25T21:16:03.519Z,9.79
2023-04-25T21:19:09.036Z,9.76
2023-04-25T21:22:14.359Z,9.72
2023-04-25T21:25:20.352Z,9.73
2023-04-25T21:28:29.299Z,9.72
2023-04-25T21:31:36.116Z,9.64
2023-04-25T21:34:38.662Z,9.64
2023-04-25T21:37:42.275Z,9.56
2023-04-25T21:40:46.013Z,9.58
2023-04-25T21:43:48.831Z,9.56
2023-04-25T21:46:52.268Z,9.53
2023-04-25T21:49:57.310Z,9.50
2023-04-25T21:53:02.837Z,9.50
2023-04-25T21:56:05.967Z,9.42
2023-04-25T21:59:10.964Z,9.42
2023-04-25T22:02:14.944Z,9.39
2023-04-25T22:05:22.799Z,9.28
2023-04-25T22:08:26.476Z,9.30
2023-04-25T22:11:30.327Z,9.20
2023-04-25T22:14:34.465Z,9.26
2023-04-25T22:17:40.283Z,9.26
2023-04-25T22:20:44.398Z,9.24
2023-04-25T22:23:48.032Z,9.18
2023-04-25T22:26:50.746Z,9.21
2023-04-25T22:29:54.118Z,9.20
2023-04-25T22:32:58.076Z,9.14
2023-04-25T22:36:02.050Z,9.12
2023-04-25T22:39:04.768Z,9.07
2023-04-25T22:42:07.611Z,9.09
2023-04-25T22:45:12.273Z,9.06
2023-04-25T22:48:16.050Z,9.12
2023-04-25T22:51:18.788Z,9.14
2023-04-25T22:54:21.910Z,9.17
2023-04-25T22:57:28.573Z,9.18
2023-04-25T23:00:34.460Z,9.18
2023-04-25T23:03:38.200Z,9.17
2023-04-25T23:06:42.173Z,9.23
2023-04-25T23:09:45.369Z,9.23
2023-04-25T23:12:48.673Z,9.23
2023-04-25T23:16:06.299Z,9.19
2023-04-25T23:19:09.504Z,9.18
2023-04-25T23:22:12.706Z,9.17
2023-04-25T23:25:16.670Z,9.14
2023-04-25T23:28:19.331Z,9.13
2023-04-25T23:31:24.434Z,9.14
2023-04-25T23:34:33.967Z,9.17
2023-04-25T23:37:38.042Z,9.18
2023-04-25T23:40:40.578Z,9.20
2023-04-25T23:43:45.780Z,9.17
2023-04-25T23:46:50.074Z,9.13
2023-04-25T23:49:53.201Z,9.12
2023-04-25T23:52:55.623Z,9.16
2023-04-25T23:55:59.804Z,9.17
2023-04-25T23:59:02.547Z,9.09
